Terminal Aerodrome Forecast
Issued by NWS North Platte, NE

Home | Current Version | Previous Version | Text Only | Print | Product List | Glossary On
Versions: 1 2 3 4 5 6 7 8 9 10 11 12 13 14 15 16 17 18 19 20 21 22
000
FTUS43 KLBF 251700
TAFLBF
TAF
KLBF 251740Z 2518/2618 17006KT P6SM SCT035 BKN050
      TEMPO 2519/2522 -SHRA BKN035
     FM252200 26010KT P6SM VCTS BKN035CB
      TEMPO 2522/2601 -TSRA BKN035CB
     FM260200 VRB05KT P6SM SCT025 OVC050
     FM260800 VRB04KT 4SM BR SCT005 OVC015
     FM261200 VRB04KT 2SM BR OVC005
     FM261500 32007KT P6SM OVC015=

USA.gov is the U.S. government's official web portal to all federal, state and local government web resources and services.